TAF and METAR

METAR for Zabol Airport

OIZB 171900Z 28004KT 8000 FEW035CB OVC090 14/M03 Q1009
Report created 17. jan 20:00
wind 4 knots from W (280°) visibility 8000 meters some clouds (~25% cover) at 3500 feet of type cumulonimbus overcast at 9000 feet Temperature 14° with dewpoint at -3° (Humidity 30.69%) Pressure 1009 hPa
No TAF available for Zabol Airport